Farisita, Colorado
Current Conditions -  °F | °C
As of 8:04 AM on Sunday 21 Dec 2014 (Local Time) from KVTP Reporting Station
Clear Clear  
Wind Chill:   Ceiling: Unl
Heat Index: 21°   Visibility: 10mi
Dew Point: 18°   Wind: 14mph
Humidity: 86%   Direction: 210°SSW
Pressure: 29.84"   Gusts: 26mph
Location:  37.6936°N, 104.772°W
Report Text: KVTP 211504Z AUTO 21012G23KT 170V250 10SM CLR M06/M08 A2984 RMK AO2
Loading
Personal Weather Stations






























Interactive Weather Map New forecast layout! Learn more

10-Day Weather Forecast

Advertisements
Track Severe Weather on mobile